Time;durP1;ratioP1;P1;durP2;ratioP2;P2;SDS_P1;SDS_P2;PMS_P1;PMS_P2;Temp;Humidity;BMP_temperature;BMP_pressure;BME280_temperature;BME280_humidity;BME280_pressure;Samples;Min_cycle;Max_cycle;Signal;HPM_P1;HPM_P2
2023/06/16 17:15:41;;;;;;;3.10;1.92;;;28.00;63.10;;;;;;4931984;29;20889;-67
2023/06/16 17:18:08;;;;;;;5.60;1.65;;;28.00;62.40;;;;;;4931892;29;20209;-70
2023/06/16 17:20:35;;;;;;;3.38;1.70;;;28.00;63.10;;;;;;4939065;29;20235;-72
2023/06/16 17:23:02;;;;;;;3.17;2.00;;;27.90;65.20;;;;;;4939088;29;20204;-68
2023/06/16 17:25:29;;;;;;;1.90;1.70;;;27.90;67.00;;;;;;4938521;29;20219;-68
2023/06/16 17:27:55;;;;;;;2.22;1.70;;;27.90;63.40;;;;;;4938113;29;20750;-67
2023/06/16 17:30:23;;;;;;;3.13;1.63;;;27.90;62.70;;;;;;4938072;29;20217;-67
2023/06/16 17:32:51;;;;;;;4.10;1.80;;;28.00;63.30;;;;;;4938311;29;20235;-68
2023/06/16 17:35:18;;;;;;;3.42;1.90;;;27.90;63.90;;;;;;4938579;29;20216;-67
2023/06/16 17:37:46;;;;;;;4.30;2.08;;;28.00;64.80;;;;;;4938588;29;20220;-67
2023/06/16 17:40:18;;;;;;;2.63;1.90;;;27.90;67.80;;;;;;4938437;29;20316;-68
2023/06/16 17:42:45;;;;;;;3.47;2.30;;;27.90;68.70;;;;;;4938229;29;20223;-70
2023/06/16 17:45:13;;;;;;;4.00;2.42;;;27.90;64.80;;;;;;4938374;29;20233;-68
2023/06/16 17:47:40;;;;;;;2.80;2.30;;;28.00;63.20;;;;;;4938833;29;20208;-71
2023/06/16 17:50:09;;;;;;;3.63;2.10;;;28.00;62.50;;;;;;4938678;29;20630;-72
2023/06/16 17:52:36;;;;;;;6.30;1.80;;;27.90;63.30;;;;;;4938354;29;20272;-71
2023/06/16 17:55:04;;;;;;;2.30;1.85;;;27.90;68.20;;;;;;4938332;29;20208;-72
2023/06/16 17:57:31;;;;;;;3.75;2.13;;;27.70;66.00;;;;;;4938055;29;20240;-72
2023/06/16 17:59:57;;;;;;;3.80;2.30;;;27.60;65.70;;;;;;4938295;29;20231;-72
2023/06/16 18:02:24;;;;;;;4.53;2.38;;;27.60;64.60;;;;;;4937837;29;20239;-70
2023/06/16 18:04:51;;;;;;;4.10;2.13;;;27.70;65.40;;;;;;4937453;29;20205;-72
2023/06/16 18:07:19;;;;;;;2.63;2.03;;;27.70;65.80;;;;;;4937628;29;20328;-72
2023/06/16 18:09:46;;;;;;;2.92;2.28;;;27.60;66.40;;;;;;4937728;29;20209;-71
2023/06/16 18:12:13;;;;;;;3.33;2.28;;;27.50;68.40;;;;;;4937936;29;20319;-71
2023/06/16 18:14:40;;;;;;;3.92;2.50;;;27.40;67.90;;;;;;4937214;29;20585;-68
2023/06/16 18:17:07;;;;;;;8.55;2.30;;;27.30;68.70;;;;;;4936944;29;20275;-73
2023/06/16 18:19:34;;;;;;;4.68;2.40;;;27.20;68.50;;;;;;4928534;29;20204;-68
2023/06/16 18:22:01;;;;;;;4.03;2.30;;;27.00;69.20;;;;;;4923902;29;20263;-68
2023/06/16 18:24:29;;;;;;;2.40;2.00;;;26.90;70.60;;;;;;4920490;29;20322;-67
2023/06/16 18:26:56;;;;;;;4.50;2.20;;;26.80;70.10;;;;;;4936189;29;20599;-67
2023/06/16 18:29:23;;;;;;;5.00;2.22;;;26.80;69.60;;;;;;4923471;29;20205;-67
2023/06/16 18:31:50;;;;;;;3.70;2.20;;;26.80;70.30;;;;;;4934496;29;20232;-67
2023/06/16 18:34:17;;;;;;;3.90;2.30;;;26.80;70.30;;;;;;4928209;29;20233;-67
2023/06/16 18:36:44;;;;;;;3.53;2.20;;;26.70;70.60;;;;;;4926696;29;20237;-67
2023/06/16 18:39:14;;;;;;;2.65;2.00;;;26.60;70.70;;;;;;4930717;29;20242;-67
2023/06/16 18:41:43;;;;;;;2.75;2.22;;;26.50;71.10;;;;;;4928225;29;20724;-67
2023/06/16 18:44:10;;;;;;;3.40;2.40;;;26.50;72.00;;;;;;4931720;29;20206;-68
2023/06/16 18:46:37;;;;;;;2.97;2.00;;;26.40;72.60;;;;;;4926736;29;20213;-67
2023/06/16 18:49:04;;;;;;;2.55;1.95;;;26.30;72.60;;;;;;4931391;29;20213;-67
2023/06/16 18:51:32;;;;;;;5.18;2.00;;;26.30;73.10;;;;;;4926147;29;20233;-67
2023/06/16 18:53:59;;;;;;;3.10;2.10;;;26.20;73.50;;;;;;4926601;29;20660;-68
2023/06/16 18:56:26;;;;;;;3.30;2.10;;;26.20;74.40;;;;;;4929915;29;20587;-68
2023/06/16 18:58:55;;;;;;;3.20;2.03;;;26.00;74.10;;;;;;4930334;29;20205;-67
2023/06/16 19:01:22;;;;;;;3.20;2.22;;;26.00;74.50;;;;;;4929738;29;20323;-68
2023/06/16 19:03:49;;;;;;;3.60;2.40;;;26.00;75.40;;;;;;4930741;29;20217;-68
2023/06/16 19:06:16;;;;;;;4.03;2.00;;;25.90;74.90;;;;;;4927174;29;20325;-72
2023/06/16 19:08:44;;;;;;;3.22;2.30;;;25.80;76.30;;;;;;4928437;29;20212;-68
2023/06/16 19:11:11;;;;;;;5.00;2.35;;;25.80;76.20;;;;;;4925591;29;20778;-68
2023/06/16 19:13:38;;;;;;;4.35;1.90;;;25.70;75.70;;;;;;4923317;29;20224;-67
2023/06/16 19:16:06;;;;;;;3.22;2.42;;;25.80;75.70;;;;;;4923519;29;20276;-68
2023/06/16 19:18:33;;;;;;;3.58;2.00;;;25.60;76.30;;;;;;4925367;29;20216;-67
2023/06/16 19:21:00;;;;;;;2.55;1.83;;;25.60;75.70;;;;;;4934866;29;20224;-68
2023/06/16 19:23:27;;;;;;;2.30;1.90;;;25.50;77.00;;;;;;4922147;29;20236;-68
2023/06/16 19:25:53;;;;;;;4.75;2.15;;;25.50;76.90;;;;;;4934618;29;20201;-67
2023/06/16 19:28:20;;;;;;;5.20;2.10;;;25.50;75.50;;;;;;4919372;29;20216;-68
2023/06/16 19:30:47;;;;;;;4.28;2.83;;;25.40;76.00;;;;;;4932258;29;20259;-69
2023/06/16 19:33:16;;;;;;;3.78;1.98;;;25.40;78.10;;;;;;4926498;29;20232;-67
2023/06/16 19:35:43;;;;;;;4.32;2.00;;;25.30;77.00;;;;;;4932941;29;20219;-67
2023/06/16 19:38:09;;;;;;;2.80;1.90;;;25.20;77.00;;;;;;4925324;29;20233;-67
2023/06/16 19:40:36;;;;;;;3.88;2.60;;;25.10;78.50;;;;;;4931328;29;20787;-71
2023/06/16 19:43:03;;;;;;;2.63;2.15;;;25.10;80.60;;;;;;4925325;29;20683;-69
2023/06/16 19:45:30;;;;;;;7.32;2.65;;;25.00;79.80;;;;;;4927802;29;20209;-67
2023/06/16 19:47:57;;;;;;;3.33;2.40;;;24.90;82.90;;;;;;4929884;29;20700;-70
2023/06/16 19:50:25;;;;;;;5.35;3.72;;;24.70;85.70;;;;;;4928050;29;20205;-67
2023/06/16 19:52:52;;;;;;;3.08;2.67;;;24.70;86.80;;;;;;4917308;29;20301;-67
2023/06/16 19:55:19;;;;;;;5.18;2.75;;;24.60;86.40;;;;;;4929920;29;20628;-67
2023/06/16 19:57:46;;;;;;;3.05;2.30;;;24.50;86.30;;;;;;4930099;29;20239;-67
2023/06/16 20:00:13;;;;;;;6.82;3.28;;;24.40;86.90;;;;;;4931860;29;20201;-67
2023/06/16 20:02:41;;;;;;;3.88;2.38;;;24.30;87.40;;;;;;4933676;29;20233;-68
2023/06/16 20:05:09;;;;;;;5.40;2.80;;;24.20;87.50;;;;;;4922779;29;20637;-69
2023/06/16 20:07:38;;;;;;;4.28;2.70;;;24.10;87.60;;;;;;4931091;29;20296;-67
2023/06/16 20:10:06;;;;;;;4.85;2.17;;;24.00;88.10;;;;;;4929352;29;20213;-68
2023/06/16 20:12:32;;;;;;;5.07;3.00;;;23.90;90.00;;;;;;4933952;29;20239;-69
2023/06/16 20:14:59;;;;;;;4.22;2.72;;;23.80;90.00;;;;;;4926294;29;20217;-67
2023/06/16 20:17:26;;;;;;;5.28;2.88;;;23.60;89.70;;;;;;4929705;29;20796;-68
2023/06/16 20:19:53;;;;;;;5.28;3.10;;;23.60;90.40;;;;;;4926164;29;20205;-67
2023/06/16 20:22:20;;;;;;;7.25;3.03;;;23.50;90.40;;;;;;4928912;29;20228;-68
2023/06/16 20:24:48;;;;;;;4.65;2.53;;;23.40;90.80;;;;;;4924409;29;20215;-68
2023/06/16 20:27:15;;;;;;;5.05;3.03;;;23.30;90.10;;;;;;4927193;29;20292;-68
2023/06/16 20:29:42;;;;;;;4.90;2.28;;;23.30;90.70;;;;;;4924844;29;20210;-68
2023/06/16 20:32:09;;;;;;;2.88;1.92;;;23.20;89.50;;;;;;4929542;29;20784;-68
2023/06/16 20:34:36;;;;;;;8.05;2.40;;;23.10;89.90;;;;;;4934550;29;20219;-67
2023/06/16 20:37:03;;;;;;;4.25;2.42;;;23.10;89.90;;;;;;4930939;29;20232;-69
2023/06/16 20:39:30;;;;;;;6.68;3.30;;;22.90;87.60;;;;;;4932600;29;20682;-67
2023/06/16 20:41:58;;;;;;;5.85;3.45;;;23.00;86.00;;;;;;4928313;29;20229;-67
2023/06/16 20:44:25;;;;;;;3.13;2.20;;;23.10;86.00;;;;;;4930748;29;20212;-68
2023/06/16 20:46:52;;;;;;;5.18;2.60;;;23.00;83.60;;;;;;4928403;29;20219;-69
2023/06/16 20:49:19;;;;;;;5.85;3.17;;;23.00;85.20;;;;;;4935051;29;20217;-68
2023/06/16 20:51:46;;;;;;;3.83;2.13;;;23.00;85.10;;;;;;4928399;29;20229;-67
2023/06/16 20:54:12;;;;;;;5.00;2.20;;;22.90;83.00;;;;;;4928187;29;20230;-68
2023/06/16 20:56:39;;;;;;;2.42;1.90;;;23.10;84.20;;;;;;4928813;29;20231;-68
2023/06/16 20:59:07;;;;;;;3.67;2.00;;;22.90;83.20;;;;;;4933596;29;20231;-67
